Terminal Aerodrome Forecast
Issued by NWS Wilmington, OH

Current Version | Previous Version | Graphics & Text | Print | Product List | Glossary On
Versions: 1 2 3 4 5 6 7 8 9 10 11 12 13 14 15 16 17 18
000
FTUS41 KILN 171034 AAA
TAFCMH
TAF AMD
KCMH 171034Z 1711/1806 14006KT P6SM VCTS SCT050CB BKN120
      TEMPO 1711/1714 4SM -TSRA BR OVC040CB
     FM171400 17007KT P6SM VCTS SCT040CB BKN100
     FM171900 21010G18KT P6SM -SHRA VCTS BKN035CB
     FM180400 22007KT P6SM BKN090=

USA.gov is the U.S. government's official web portal to all federal, state and local government web resources and services.